createdAt,value
2018-02-25T00:02:30.309Z,14.03
2018-02-25T00:05:00.342Z,21.40
2018-02-25T00:07:31.828Z,16.57
2018-02-25T00:10:01.623Z,17.90
2018-02-25T00:12:32.428Z,18.06
2018-02-25T00:15:01.712Z,20.60
2018-02-25T00:17:31.910Z,18.30
2018-02-25T00:20:01.389Z,18.08
2018-02-25T00:22:30.983Z,14.80
2018-02-25T00:25:04.282Z,14.13
2018-02-25T00:27:34.660Z,22.20
2018-02-25T00:30:05.009Z,17.96
2018-02-25T00:32:35.732Z,17.10
2018-02-25T00:35:08.841Z,20.48
2018-02-25T00:37:39.407Z,18.87
2018-02-25T00:40:10.029Z,15.38
2018-02-25T00:42:40.349Z,17.37
2018-02-25T00:45:11.859Z,13.50
2018-02-25T00:47:43.847Z,13.81
2018-02-25T00:50:13.324Z,17.70
2018-02-25T00:52:42.837Z,15.77
2018-02-25T00:55:15.838Z,16.83
2018-02-25T00:57:45.215Z,22.10
2018-02-25T01:00:15.891Z,23.52
2018-02-25T01:02:45.447Z,15.92
2018-02-25T01:05:15.650Z,22.40
2018-02-25T01:07:49.081Z,19.42
2018-02-25T01:10:18.460Z,19.37
2018-02-25T01:12:48.464Z,16.87
2018-02-25T01:15:19.239Z,17.12
2018-02-25T01:17:48.537Z,15.60
2018-02-25T01:20:22.239Z,15.20
2018-02-25T01:22:53.219Z,16.68
2018-02-25T01:25:24.699Z,15.75
2018-02-25T01:27:56.414Z,14.12
2018-02-25T01:30:30.438Z,14.81
2018-02-25T01:32:59.988Z,15.90
2018-02-25T01:35:30.791Z,14.43
2018-02-25T01:38:00.068Z,13.23
2018-02-25T01:40:29.688Z,16.12
2018-02-25T01:43:02.692Z,18.18
2018-02-25T01:45:32.013Z,14.84
2018-02-25T01:48:01.899Z,14.77
2018-02-25T01:53:32.883Z,17.83
2018-02-25T01:56:02.018Z,15.40
2018-02-25T01:58:31.114Z,14.57
2018-02-25T02:01:00.293Z,14.83
2018-02-25T02:03:29.845Z,33.20
2018-02-25T02:05:58.996Z,27.20
2018-02-25T02:08:27.793Z,16.00
2018-02-25T02:10:57.022Z,18.17
2018-02-25T02:13:26.409Z,16.27
2018-02-25T02:15:55.479Z,15.17
2018-02-25T02:18:24.843Z,21.52
2018-02-25T02:20:53.884Z,17.43
2018-02-25T02:23:23.193Z,15.02
2018-02-25T02:25:52.674Z,14.48
2018-02-25T02:28:22.147Z,21.75
2018-02-25T02:30:51.334Z,18.40
2018-02-25T02:33:20.677Z,14.18
2018-02-25T02:35:49.829Z,16.17
2018-02-25T02:40:59.281Z,14.70
2018-02-25T02:43:28.633Z,17.67
2018-02-25T02:45:57.812Z,23.20
2018-02-25T02:48:27.143Z,18.95
2018-02-25T02:50:56.368Z,15.83
2018-02-25T02:53:26.480Z,18.37
2018-02-25T02:55:57.864Z,16.41
2018-02-25T02:58:28.500Z,17.51
2018-02-25T03:00:57.645Z,18.98
2018-02-25T03:03:26.976Z,19.18
2018-02-25T03:05:56.632Z,18.25
2018-02-25T03:08:25.885Z,30.37
2018-02-25T03:10:57.746Z,43.90
2018-02-25T03:13:28.640Z,52.78
2018-02-25T03:15:59.966Z,39.38
2018-02-25T03:18:33.121Z,40.56
2018-02-25T03:21:02.551Z,32.85
2018-02-25T03:23:31.783Z,30.35
2018-02-25T03:26:03.076Z,26.55
2018-02-25T03:28:36.902Z,34.96
2018-02-25T03:31:07.684Z,26.98
2018-02-25T03:33:37.160Z,20.42
2018-02-25T03:36:06.874Z,21.65
2018-02-25T03:38:37.165Z,30.06
2018-02-25T03:41:11.684Z,25.19
2018-02-25T03:43:43.689Z,29.20
2018-02-25T03:46:13.375Z,24.48
2018-02-25T03:48:42.924Z,25.00
2018-02-25T03:51:14.521Z,20.05
2018-02-25T03:53:45.353Z,26.35
2018-02-25T03:56:14.530Z,23.67
2018-02-25T03:58:43.974Z,27.90
2018-02-25T04:01:14.786Z,24.10
2018-02-25T04:03:44.253Z,23.60
2018-02-25T04:06:16.010Z,23.98
2018-02-25T04:08:45.891Z,21.10
2018-02-25T04:11:17.405Z,22.70
2018-02-25T04:13:47.109Z,21.40
2018-02-25T04:16:18.484Z,20.42
2018-02-25T04:18:48.263Z,22.67
2018-02-25T04:21:20.983Z,24.90
2018-02-25T04:23:52.599Z,22.67
2018-02-25T04:26:23.048Z,23.88
2018-02-25T04:28:56.421Z,26.81
2018-02-25T04:31:25.915Z,22.00
2018-02-25T04:33:57.279Z,23.50
2018-02-25T04:36:27.750Z,26.40
2018-02-25T04:38:59.042Z,25.90
2018-02-25T04:41:30.314Z,20.62
2018-02-25T04:43:59.387Z,20.80
2018-02-25T04:46:30.053Z,22.13
2018-02-25T04:48:59.848Z,23.73
2018-02-25T04:51:30.848Z,24.75
2018-02-25T04:54:02.848Z,31.56
2018-02-25T04:56:32.381Z,37.17
2018-02-25T04:59:05.443Z,36.95
2018-02-25T05:01:35.908Z,33.50
2018-02-25T05:04:05.067Z,34.08
2018-02-25T05:06:37.988Z,25.60
2018-02-25T05:09:08.293Z,26.83
2018-02-25T05:11:37.992Z,19.60
2018-02-25T05:14:08.582Z,18.92
2018-02-25T05:16:39.604Z,18.12
2018-02-25T05:19:10.402Z,21.04
2018-02-25T05:21:40.425Z,22.30
2018-02-25T05:24:12.915Z,26.90
2018-02-25T05:26:44.578Z,26.02
2018-02-25T05:29:13.832Z,29.40
2018-02-25T05:31:47.974Z,22.70
2018-02-25T05:34:18.137Z,24.10
2018-02-25T05:36:48.047Z,34.20
2018-02-25T05:39:17.341Z,25.70
2018-02-25T05:41:50.639Z,32.64
2018-02-25T05:44:20.923Z,24.30
2018-02-25T05:46:51.750Z,20.35
2018-02-25T05:49:21.013Z,20.73
2018-02-25T05:51:51.233Z,20.40
2018-02-25T05:54:22.857Z,18.40
2018-02-25T05:56:53.544Z,22.20
2018-02-25T05:59:24.290Z,22.27
2018-02-25T06:01:54.649Z,36.72
2018-02-25T06:04:25.171Z,39.75
2018-02-25T06:06:55.533Z,39.22
2018-02-25T06:09:27.110Z,27.60
2018-02-25T06:11:59.380Z,24.42
2018-02-25T06:14:30.499Z,24.05
2018-02-25T06:17:02.264Z,27.14
2018-02-25T06:19:32.496Z,25.67
2018-02-25T06:22:06.644Z,24.81
2018-02-25T06:24:36.249Z,26.73
2018-02-25T06:27:05.191Z,25.37
2018-02-25T06:29:34.914Z,23.45
2018-02-25T06:32:06.135Z,33.02
2018-02-25T06:34:37.156Z,38.05
2018-02-25T06:37:07.828Z,51.60
2018-02-25T06:39:39.720Z,42.80
2018-02-25T06:42:10.604Z,44.67
2018-02-25T06:44:41.536Z,44.04
2018-02-25T06:47:12.157Z,41.00
2018-02-25T06:49:42.110Z,42.28
2018-02-25T06:52:13.368Z,29.33
2018-02-25T06:54:44.614Z,42.45
2018-02-25T06:57:15.605Z,74.98
2018-02-25T06:59:46.030Z,80.60
2018-02-25T07:02:16.920Z,84.70
2018-02-25T07:04:47.604Z,42.55
2018-02-25T07:07:18.023Z,25.50
2018-02-25T07:09:51.091Z,44.68
2018-02-25T07:12:20.826Z,46.92
2018-02-25T07:14:52.477Z,61.40
2018-02-25T07:17:23.406Z,62.00
2018-02-25T07:19:53.954Z,74.53
2018-02-25T07:22:26.406Z,69.62
2018-02-25T07:24:55.696Z,47.45
2018-02-25T07:27:27.793Z,28.76
2018-02-25T07:29:57.123Z,69.10
2018-02-25T07:32:28.279Z,51.60
2018-02-25T07:35:01.316Z,23.20
2018-02-25T07:37:30.770Z,19.70
2018-02-25T07:40:00.397Z,19.46
2018-02-25T07:42:32.138Z,22.48
2018-02-25T07:45:02.826Z,24.00
2018-02-25T07:47:33.592Z,25.30
2018-02-25T07:50:02.928Z,31.40
2018-02-25T07:52:33.786Z,35.12
2018-02-25T07:55:04.294Z,22.50
2018-02-25T07:57:35.588Z,17.67
2018-02-25T08:00:05.290Z,23.08
2018-02-25T08:02:36.079Z,29.40
2018-02-25T08:05:06.280Z,29.33
2018-02-25T08:07:37.678Z,28.33
2018-02-25T08:10:08.567Z,32.30
2018-02-25T08:12:39.665Z,71.32
2018-02-25T08:15:10.396Z,66.72
2018-02-25T08:17:43.368Z,64.05
2018-02-25T08:20:15.047Z,44.48
2018-02-25T08:22:49.484Z,32.26
2018-02-25T08:25:18.644Z,18.76
2018-02-25T08:27:49.454Z,22.12
2018-02-25T08:30:19.968Z,20.45
2018-02-25T08:32:50.553Z,25.05
2018-02-25T08:35:22.095Z,16.62
2018-02-25T08:37:52.573Z,15.60
2018-02-25T08:40:22.599Z,17.40
2018-02-25T08:42:53.058Z,15.43
2018-02-25T08:45:23.698Z,16.23
2018-02-25T08:47:56.057Z,23.92
2018-02-25T08:50:25.540Z,18.02
2018-02-25T08:52:56.179Z,21.62
2018-02-25T08:55:26.442Z,23.23
2018-02-25T08:57:58.194Z,23.08
2018-02-25T09:00:27.883Z,21.33
2018-02-25T09:02:58.889Z,21.35
2018-02-25T09:05:28.869Z,49.40
2018-02-25T09:07:59.866Z,50.33
2018-02-25T09:10:31.492Z,28.42
2018-02-25T09:13:06.088Z,30.49
2018-02-25T09:15:35.216Z,25.42
2018-02-25T09:18:04.300Z,22.80
2018-02-25T09:20:34.001Z,23.77
2018-02-25T09:23:03.872Z,27.42
2018-02-25T09:25:35.655Z,31.67
2018-02-25T09:28:06.748Z,32.53
2018-02-25T09:30:36.700Z,24.83
2018-02-25T09:33:06.306Z,23.77
2018-02-25T09:35:37.168Z,29.95
2018-02-25T09:38:08.627Z,48.92
2018-02-25T09:40:39.896Z,26.15
2018-02-25T09:43:12.297Z,29.97
2018-02-25T09:45:41.840Z,34.75
2018-02-25T09:48:12.289Z,18.82
2018-02-25T09:50:43.428Z,33.42
2018-02-25T09:53:13.849Z,27.13
2018-02-25T09:55:45.238Z,30.24
2018-02-25T09:58:15.700Z,19.90
2018-02-25T10:00:46.545Z,21.75
2018-02-25T10:03:17.074Z,18.62
2018-02-25T10:05:48.838Z,25.20
2018-02-25T10:08:21.467Z,24.46
2018-02-25T10:10:50.897Z,23.37
2018-02-25T10:13:21.544Z,19.15
2018-02-25T10:15:52.913Z,20.90
2018-02-25T10:18:26.785Z,20.41
2018-02-25T10:20:56.747Z,23.08
2018-02-25T10:23:26.912Z,24.57
2018-02-25T10:25:57.296Z,19.35
2018-02-25T10:28:26.887Z,17.02
2018-02-25T10:30:57.648Z,18.10
2018-02-25T10:33:28.536Z,25.05
2018-02-25T10:35:59.448Z,20.92
2018-02-25T10:38:29.654Z,19.83
2018-02-25T10:41:00.713Z,18.52
2018-02-25T10:43:30.831Z,17.30
2018-02-25T10:46:01.793Z,19.27
2018-02-25T10:48:32.169Z,20.83
2018-02-25T10:51:03.516Z,38.50
2018-02-25T10:53:34.343Z,25.12
2018-02-25T10:56:03.866Z,33.67
2018-02-25T10:58:36.169Z,22.37
2018-02-25T11:01:08.052Z,20.58
2018-02-25T11:03:39.870Z,32.25
2018-02-25T11:06:10.214Z,33.40
2018-02-25T11:08:40.894Z,29.17
2018-02-25T11:11:11.711Z,23.73
2018-02-25T11:13:43.327Z,34.48
2018-02-25T11:16:13.739Z,28.60
2018-02-25T11:18:44.499Z,35.88
2018-02-25T11:21:16.220Z,31.37
2018-02-25T11:23:46.872Z,20.45
2018-02-25T11:26:17.846Z,25.52
2018-02-25T11:28:48.320Z,24.14
2018-02-25T11:31:21.649Z,46.34
2018-02-25T11:33:50.920Z,26.75
2018-02-25T11:36:21.329Z,30.28
2018-02-25T11:38:52.767Z,25.75
2018-02-25T11:41:21.649Z,37.90
2018-02-25T11:43:53.262Z,29.88
2018-02-25T11:46:24.199Z,21.12
2018-02-25T11:48:55.506Z,38.52
2018-02-25T11:51:27.123Z,27.13
2018-02-25T11:53:57.764Z,20.70
2018-02-25T11:56:28.647Z,24.90
2018-02-25T11:58:59.873Z,34.30
2018-02-25T12:01:29.472Z,29.63
2018-02-25T12:04:00.065Z,28.33
2018-02-25T12:06:30.948Z,26.25
2018-02-25T12:09:01.797Z,22.23
2018-02-25T12:11:33.210Z,21.88
2018-02-25T12:14:03.842Z,25.90
2018-02-25T12:16:36.314Z,19.98
2018-02-25T12:19:08.380Z,22.88
2018-02-25T12:21:37.941Z,18.15
2018-02-25T12:24:10.481Z,26.43
2018-02-25T12:26:40.407Z,26.05
2018-02-25T12:29:09.682Z,22.70
2018-02-25T12:31:41.137Z,19.96
2018-02-25T12:34:10.940Z,23.33
2018-02-25T12:36:41.878Z,23.52
2018-02-25T12:39:12.259Z,26.84
2018-02-25T12:41:42.690Z,27.15
2018-02-25T12:44:13.572Z,35.95
2018-02-25T12:46:44.520Z,39.28
2018-02-25T12:49:15.424Z,24.92
2018-02-25T12:51:46.355Z,30.30
2018-02-25T12:54:17.492Z,27.80
2018-02-25T12:56:48.787Z,23.45
2018-02-25T12:59:19.595Z,20.85
2018-02-25T13:01:50.975Z,28.50
2018-02-25T13:04:21.647Z,21.73
2018-02-25T13:06:52.700Z,25.35
2018-02-25T13:09:29.895Z,21.10
2018-02-25T13:11:59.228Z,23.95
2018-02-25T13:14:28.510Z,23.48
2018-02-25T13:16:57.659Z,22.90
2018-02-25T13:19:27.317Z,24.90
2018-02-25T13:21:57.855Z,25.00
2018-02-25T13:24:28.588Z,26.67
2018-02-25T13:26:59.097Z,24.52
2018-02-25T13:29:29.886Z,24.12
2018-02-25T13:32:01.162Z,21.58
2018-02-25T13:34:31.627Z,26.83
2018-02-25T13:37:02.326Z,27.08
2018-02-25T13:39:32.976Z,28.72
2018-02-25T13:42:02.824Z,28.48
2018-02-25T13:44:34.040Z,51.70
2018-02-25T13:47:04.643Z,21.83
2018-02-25T13:49:35.564Z,32.60
2018-02-25T13:52:06.426Z,29.92
2018-02-25T13:54:37.393Z,27.87
2018-02-25T13:57:08.381Z,31.75
2018-02-25T13:59:39.946Z,27.77
2018-02-25T14:02:11.552Z,21.90
2018-02-25T14:04:41.201Z,24.95
2018-02-25T14:07:11.589Z,27.30
2018-02-25T14:09:42.209Z,28.04
2018-02-25T14:12:12.628Z,31.37
2018-02-25T14:14:43.553Z,23.92
2018-02-25T14:17:16.033Z,35.37
2018-02-25T14:19:45.553Z,37.70
2018-02-25T14:22:16.168Z,24.42
2018-02-25T14:24:45.884Z,40.97
2018-02-25T14:27:16.506Z,39.70
2018-02-25T14:29:47.440Z,37.60
2018-02-25T14:32:18.629Z,31.30
2018-02-25T14:34:50.528Z,33.95
2018-02-25T14:37:21.796Z,27.24
2018-02-25T14:39:52.136Z,27.64
2018-02-25T14:42:23.774Z,26.66
2018-02-25T14:44:54.376Z,26.70
2018-02-25T14:47:23.865Z,27.20
2018-02-25T14:49:54.187Z,27.27
2018-02-25T14:52:25.664Z,27.36
2018-02-25T14:54:56.381Z,28.30
2018-02-25T14:57:31.864Z,29.47
2018-02-25T15:00:04.475Z,27.87
2018-02-25T15:02:34.664Z,28.87
2018-02-25T15:05:03.935Z,25.88
2018-02-25T15:07:33.791Z,23.65
2018-02-25T15:10:04.215Z,25.28
2018-02-25T15:12:35.066Z,33.06
2018-02-25T15:15:04.979Z,33.80
2018-02-25T15:17:35.279Z,68.76
2018-02-25T15:20:05.933Z,29.28
2018-02-25T15:22:36.596Z,24.12
2018-02-25T15:25:08.930Z,44.58
2018-02-25T15:27:39.187Z,45.24
2018-02-25T15:30:09.658Z,33.35
2018-02-25T15:32:40.505Z,40.65
2018-02-25T15:35:11.472Z,35.08
2018-02-25T15:37:42.420Z,31.80
2018-02-25T15:40:13.353Z,44.35
2018-02-25T15:42:43.917Z,46.78
2018-02-25T15:45:14.185Z,38.36
2018-02-25T15:47:44.559Z,33.72
2018-02-25T15:50:15.192Z,38.92
2018-02-25T15:52:46.426Z,43.72
2018-02-25T15:55:16.892Z,46.42
2018-02-25T15:57:47.741Z,43.00
2018-02-25T16:00:18.851Z,47.13
2018-02-25T16:02:49.498Z,41.45
2018-02-25T16:05:22.046Z,46.82
2018-02-25T16:07:52.266Z,50.94
2018-02-25T16:10:22.853Z,45.42
2018-02-25T16:12:53.584Z,32.65
2018-02-25T16:15:26.557Z,35.96
2018-02-25T16:17:56.443Z,32.63
2018-02-25T16:20:26.233Z,33.28
2018-02-25T16:22:55.899Z,41.08
2018-02-25T16:25:28.506Z,43.82
2018-02-25T16:27:58.119Z,45.97
2018-02-25T16:30:28.921Z,45.00
2018-02-25T16:32:59.483Z,56.22
2018-02-25T16:35:30.430Z,55.75
2018-02-25T16:38:02.403Z,46.60
2018-02-25T16:40:33.544Z,48.98
2018-02-25T16:43:04.083Z,53.32
2018-02-25T16:45:34.543Z,54.20
2018-02-25T16:48:05.162Z,61.30
2018-02-25T16:50:35.859Z,61.47
2018-02-25T16:53:06.364Z,75.32
2018-02-25T16:55:38.993Z,51.56
2018-02-25T16:58:09.760Z,59.50
2018-02-25T17:00:42.123Z,52.26
2018-02-25T17:03:11.505Z,55.34
2018-02-25T17:05:42.287Z,31.70
2018-02-25T17:08:12.109Z,34.40
2018-02-25T17:10:42.616Z,43.55
2018-02-25T17:13:14.106Z,55.64
2018-02-25T17:15:44.259Z,63.85
2018-02-25T17:18:15.192Z,54.78
2018-02-25T17:20:45.815Z,59.95
2018-02-25T17:23:16.868Z,52.53
2018-02-25T17:25:47.620Z,42.65
2018-02-25T17:28:19.080Z,43.85
2018-02-25T17:30:51.343Z,44.13
2018-02-25T17:33:22.958Z,40.84
2018-02-25T17:35:52.176Z,37.67
2018-02-25T17:38:22.903Z,38.05
2018-02-25T17:40:56.497Z,45.10
2018-02-25T17:43:25.860Z,39.50
2018-02-25T17:45:56.439Z,43.53
2018-02-25T17:48:26.097Z,45.88
2018-02-25T17:50:55.872Z,55.70
2018-02-25T17:53:26.627Z,73.07
2018-02-25T17:55:57.702Z,106.50
2018-02-25T17:58:32.288Z,102.30
2018-02-25T18:01:03.034Z,81.93
2018-02-25T18:03:32.288Z,91.75
2018-02-25T18:06:04.238Z,103.65
2018-02-25T18:08:33.485Z,85.50
2018-02-25T18:11:06.292Z,70.28
2018-02-25T18:13:36.052Z,55.40
2018-02-25T18:16:05.942Z,54.05
2018-02-25T18:18:36.172Z,56.04
2018-02-25T18:21:07.453Z,57.62
2018-02-25T18:23:38.140Z,82.45
2018-02-25T18:26:08.047Z,176.70
2018-02-25T18:28:38.692Z,152.20
2018-02-25T18:31:10.266Z,99.25
2018-02-25T18:33:40.671Z,70.15
2018-02-25T18:36:11.481Z,69.97
2018-02-25T18:38:42.438Z,72.97
2018-02-25T18:41:12.985Z,69.68
2018-02-25T18:43:44.029Z,92.55
2018-02-25T18:46:14.630Z,132.55
2018-02-25T18:48:45.602Z,105.20
2018-02-25T18:51:16.505Z,132.40
2018-02-25T18:53:47.454Z,92.68
2018-02-25T18:56:20.184Z,78.08
2018-02-25T18:58:51.074Z,77.87
2018-02-25T19:01:20.381Z,75.17
2018-02-25T19:03:50.041Z,76.32
2018-02-25T19:06:23.337Z,72.57
2018-02-25T19:08:53.760Z,69.35
2018-02-25T19:11:23.340Z,69.20
2018-02-25T19:13:53.906Z,80.64
2018-02-25T19:16:25.346Z,90.57
2018-02-25T19:18:54.568Z,68.20
2018-02-25T19:21:24.875Z,74.80
2018-02-25T19:23:55.819Z,126.85
2018-02-25T19:26:27.210Z,168.60
2018-02-25T19:28:57.936Z,99.30
2018-02-25T19:31:29.255Z,87.75
2018-02-25T19:34:00.138Z,157.90
2018-02-25T19:36:36.401Z,258.48
2018-02-25T19:39:10.489Z,236.93
2018-02-25T19:41:45.229Z,127.47
2018-02-25T19:44:14.918Z,85.65
2018-02-25T19:46:44.100Z,42.40
2018-02-25T19:49:14.296Z,53.47
2018-02-25T19:51:43.943Z,280.17
2018-02-25T19:54:13.111Z,247.43
2018-02-25T19:56:42.948Z,155.78
2018-02-25T19:59:12.786Z,110.96
2018-02-25T20:01:43.384Z,89.60
2018-02-25T20:04:14.144Z,113.44
2018-02-25T20:06:45.375Z,101.43
2018-02-25T20:09:16.043Z,127.54
2018-02-25T20:11:47.000Z,117.32
2018-02-25T20:14:18.569Z,96.18
2018-02-25T20:16:49.239Z,77.08
2018-02-25T20:19:18.899Z,75.15
2018-02-25T20:21:50.349Z,56.10
2018-02-25T20:24:20.820Z,55.52
2018-02-25T20:26:52.913Z,46.26
2018-02-25T20:29:25.841Z,40.22
2018-02-25T20:31:55.824Z,55.03
2018-02-25T20:34:24.988Z,51.27
2018-02-25T20:36:55.941Z,53.50
2018-02-25T20:39:26.937Z,48.85
2018-02-25T20:41:57.839Z,44.70
2018-02-25T20:44:31.024Z,49.80
2018-02-25T20:47:01.981Z,47.10
2018-02-25T20:49:33.711Z,41.02
2018-02-25T20:52:02.856Z,51.95
2018-02-25T20:54:33.204Z,50.70
2018-02-25T20:57:02.952Z,42.30
2018-02-25T20:59:33.590Z,43.60
2018-02-25T21:02:04.543Z,53.17
2018-02-25T21:04:35.513Z,47.38
2018-02-25T21:07:06.178Z,47.94
2018-02-25T21:09:36.733Z,44.65
2018-02-25T21:12:08.483Z,48.80
2018-02-25T21:14:39.832Z,41.58
2018-02-25T21:17:11.030Z,46.70
2018-02-25T21:19:40.899Z,52.55
2018-02-25T21:22:11.672Z,45.42
2018-02-25T21:24:44.061Z,41.63
2018-02-25T21:27:13.272Z,50.05
2018-02-25T21:29:43.360Z,63.45
2018-02-25T21:32:15.283Z,74.10
2018-02-25T21:34:47.020Z,62.76
2018-02-25T21:37:18.156Z,59.30
2018-02-25T21:39:48.751Z,62.50
2018-02-25T21:42:19.279Z,67.24
2018-02-25T21:44:48.988Z,94.35
2018-02-25T21:47:20.188Z,100.28
2018-02-25T21:49:50.635Z,97.35
2018-02-25T21:52:23.696Z,117.22
2018-02-25T21:54:58.667Z,129.65
2018-02-25T21:57:36.499Z,114.23
2018-02-25T22:00:11.122Z,100.45
2018-02-25T22:02:45.896Z,76.03
2018-02-25T22:05:14.708Z,81.23
2018-02-25T22:07:44.286Z,83.03
2018-02-25T22:10:13.542Z,88.53
2018-02-25T22:12:43.848Z,74.32
2018-02-25T22:15:13.700Z,84.30
2018-02-25T22:17:42.851Z,87.75
2018-02-25T22:20:12.007Z,96.70
2018-02-25T22:22:41.141Z,70.28
2018-02-25T22:25:10.527Z,68.90
2018-02-25T22:27:40.165Z,79.12
2018-02-25T22:30:09.335Z,88.78
2018-02-25T22:32:38.628Z,109.72
2018-02-25T22:35:08.002Z,77.47
2018-02-25T22:37:38.363Z,56.53
2018-02-25T22:40:07.661Z,55.83
2018-02-25T22:42:40.136Z,61.26
2018-02-25T22:45:09.345Z,60.97
2018-02-25T22:47:39.990Z,70.62
2018-02-25T22:50:11.076Z,68.10
2018-02-25T22:52:42.255Z,63.05
2018-02-25T22:55:15.041Z,81.13
2018-02-25T22:57:44.243Z,71.97
2018-02-25T23:00:21.693Z,67.94
2018-02-25T23:02:51.000Z,71.05
2018-02-25T23:05:20.183Z,71.98
2018-02-25T23:07:49.651Z,82.65
2018-02-25T23:10:19.463Z,76.53
2018-02-25T23:12:50.125Z,87.95
2018-02-25T23:15:21.710Z,94.88
2018-02-25T23:17:53.044Z,95.18
2018-02-25T23:20:24.259Z,95.70
2018-02-25T23:22:54.766Z,91.48
2018-02-25T23:25:26.629Z,94.02
2018-02-25T23:27:55.835Z,75.80
2018-02-25T23:30:25.708Z,62.55
2018-02-25T23:32:57.084Z,59.54
2018-02-25T23:35:28.327Z,55.50
2018-02-25T23:37:58.598Z,56.13
2018-02-25T23:40:27.820Z,50.00
2018-02-25T23:43:00.050Z,52.40
2018-02-25T23:45:31.304Z,55.08
2018-02-25T23:48:02.388Z,62.28
2018-02-25T23:50:35.948Z,69.90
2018-02-25T23:53:05.196Z,73.35
2018-02-25T23:55:34.956Z,60.42
2018-02-25T23:58:06.447Z,52.38
